sensor_id;sensor_type;location;lat;lon;timestamp;pressure;altitude;pressure_sealevel;temperature
7389;BMP180;3735;50.136;11.062;2023-04-29T00:02:12;97676.00;;;11.90
7389;BMP180;3735;50.136;11.062;2023-04-29T00:04:38;97678.00;;;12.00
7389;BMP180;3735;50.136;11.062;2023-04-29T00:07:04;97679.00;;;12.00
7389;BMP180;3735;50.136;11.062;2023-04-29T00:09:30;97673.00;;;12.10
7389;BMP180;3735;50.136;11.062;2023-04-29T00:11:55;97671.00;;;12.20
7389;BMP180;3735;50.136;11.062;2023-04-29T00:14:21;97674.00;;;12.20
7389;BMP180;3735;50.136;11.062;2023-04-29T00:16:47;97673.00;;;12.30
7389;BMP180;3735;50.136;11.062;2023-04-29T00:19:12;97675.00;;;12.30
7389;BMP180;3735;50.136;11.062;2023-04-29T00:21:38;97678.00;;;12.30
7389;BMP180;3735;50.136;11.062;2023-04-29T00:24:04;97674.00;;;12.40
7389;BMP180;3735;50.136;11.062;2023-04-29T00:26:30;97677.00;;;12.40
7389;BMP180;3735;50.136;11.062;2023-04-29T00:28:56;97676.00;;;12.40
7389;BMP180;3735;50.136;11.062;2023-04-29T00:31:22;97678.00;;;12.30
7389;BMP180;3735;50.136;11.062;2023-04-29T00:33:48;97678.00;;;12.30
7389;BMP180;3735;50.136;11.062;2023-04-29T00:36:13;97683.00;;;12.30
7389;BMP180;3735;50.136;11.062;2023-04-29T00:38:39;97684.00;;;12.30
7389;BMP180;3735;50.136;11.062;2023-04-29T00:41:05;97679.00;;;12.30
7389;BMP180;3735;50.136;11.062;2023-04-29T00:43:31;97672.00;;;12.40
7389;BMP180;3735;50.136;11.062;2023-04-29T00:45:57;97671.00;;;12.30
7389;BMP180;3735;50.136;11.062;2023-04-29T00:48:23;97670.00;;;12.40
7389;BMP180;3735;50.136;11.062;2023-04-29T00:50:48;97672.00;;;12.40
7389;BMP180;3735;50.136;11.062;2023-04-29T00:53:15;97678.00;;;12.40
7389;BMP180;3735;50.136;11.062;2023-04-29T00:55:43;97668.00;;;12.40
7389;BMP180;3735;50.136;11.062;2023-04-29T00:58:12;97670.00;;;12.40
7389;BMP180;3735;50.136;11.062;2023-04-29T01:00:38;97667.00;;;12.40
7389;BMP180;3735;50.136;11.062;2023-04-29T01:03:04;97671.00;;;12.40
7389;BMP180;3735;50.136;11.062;2023-04-29T01:05:30;97666.00;;;12.40
7389;BMP180;3735;50.136;11.062;2023-04-29T01:11:08;97663.00;;;12.30
7389;BMP180;3735;50.136;11.062;2023-04-29T01:13:49;97667.00;;;12.30
7389;BMP180;3735;50.136;11.062;2023-04-29T01:16:29;97671.00;;;12.20
7389;BMP180;3735;50.136;11.062;2023-04-29T01:19:51;97671.00;;;12.20
7389;BMP180;3735;50.136;11.062;2023-04-29T01:21:51;97664.00;;;12.10
7389;BMP180;3735;50.136;11.062;2023-04-29T01:24:16;97657.00;;;12.10
7389;BMP180;3735;50.136;11.062;2023-04-29T01:26:56;97657.00;;;12.10
7389;BMP180;3735;50.136;11.062;2023-04-29T01:30:11;97670.00;;;12.00
7389;BMP180;3735;50.136;11.062;2023-04-29T01:33:15;97668.00;;;11.90
7389;BMP180;3735;50.136;11.062;2023-04-29T01:42:23;97651.00;;;11.80
7389;BMP180;3735;50.136;11.062;2023-04-29T01:44:54;97650.00;;;11.70
7389;BMP180;3735;50.136;11.062;2023-04-29T01:47:22;97660.00;;;11.70
7389;BMP180;3735;50.136;11.062;2023-04-29T01:49:48;97658.00;;;11.60
7389;BMP180;3735;50.136;11.062;2023-04-29T01:52:14;97659.00;;;11.60
7389;BMP180;3735;50.136;11.062;2023-04-29T01:54:40;97658.00;;;11.60
7389;BMP180;3735;50.136;11.062;2023-04-29T01:57:05;97665.00;;;11.60
7389;BMP180;3735;50.136;11.062;2023-04-29T01:59:31;97664.00;;;11.60
7389;BMP180;3735;50.136;11.062;2023-04-29T02:01:57;97638.00;;;11.50
7389;BMP180;3735;50.136;11.062;2023-04-29T02:04:24;97653.00;;;11.50
7389;BMP180;3735;50.136;11.062;2023-04-29T02:06:50;97660.00;;;11.50
7389;BMP180;3735;50.136;11.062;2023-04-29T02:09:19;97673.00;;;11.50
7389;BMP180;3735;50.136;11.062;2023-04-29T02:11:45;97683.00;;;11.40
7389;BMP180;3735;50.136;11.062;2023-04-29T02:14:10;97694.00;;;11.50
7389;BMP180;3735;50.136;11.062;2023-04-29T02:16:37;97694.00;;;11.50
7389;BMP180;3735;50.136;11.062;2023-04-29T02:19:03;97695.00;;;11.50
7389;BMP180;3735;50.136;11.062;2023-04-29T02:21:28;97691.00;;;11.50
7389;BMP180;3735;50.136;11.062;2023-04-29T02:23:54;97697.00;;;11.60
7389;BMP180;3735;50.136;11.062;2023-04-29T02:26:20;97702.00;;;11.60
7389;BMP180;3735;50.136;11.062;2023-04-29T02:28:45;97705.00;;;11.60
7389;BMP180;3735;50.136;11.062;2023-04-29T02:31:11;97693.00;;;11.60
7389;BMP180;3735;50.136;11.062;2023-04-29T02:33:38;97689.00;;;11.50
7389;BMP180;3735;50.136;11.062;2023-04-29T02:36:04;97700.00;;;11.50
7389;BMP180;3735;50.136;11.062;2023-04-29T02:38:30;97698.00;;;11.50
7389;BMP180;3735;50.136;11.062;2023-04-29T02:40:55;97698.00;;;11.50
7389;BMP180;3735;50.136;11.062;2023-04-29T02:43:21;97701.00;;;11.50
7389;BMP180;3735;50.136;11.062;2023-04-29T02:45:47;97697.00;;;11.50
7389;BMP180;3735;50.136;11.062;2023-04-29T02:48:13;97697.00;;;11.50
7389;BMP180;3735;50.136;11.062;2023-04-29T02:50:39;97705.00;;;11.50
7389;BMP180;3735;50.136;11.062;2023-04-29T02:53:05;97705.00;;;11.50
7389;BMP180;3735;50.136;11.062;2023-04-29T02:55:30;97694.00;;;11.50
7389;BMP180;3735;50.136;11.062;2023-04-29T02:57:56;97706.00;;;11.50
7389;BMP180;3735;50.136;11.062;2023-04-29T03:00:22;97702.00;;;11.40
7389;BMP180;3735;50.136;11.062;2023-04-29T03:02:48;97707.00;;;11.40
7389;BMP180;3735;50.136;11.062;2023-04-29T03:05:14;97701.00;;;11.50
7389;BMP180;3735;50.136;11.062;2023-04-29T03:07:40;97713.00;;;11.40
7389;BMP180;3735;50.136;11.062;2023-04-29T03:10:06;97715.00;;;11.40
7389;BMP180;3735;50.136;11.062;2023-04-29T03:12:32;97710.00;;;11.50
7389;BMP180;3735;50.136;11.062;2023-04-29T03:14:59;97705.00;;;11.40
7389;BMP180;3735;50.136;11.062;2023-04-29T03:17:24;97710.00;;;11.40
7389;BMP180;3735;50.136;11.062;2023-04-29T03:19:51;97714.00;;;11.30
7389;BMP180;3735;50.136;11.062;2023-04-29T03:22:18;97708.00;;;11.20
7389;BMP180;3735;50.136;11.062;2023-04-29T03:24:44;97713.00;;;11.30
7389;BMP180;3735;50.136;11.062;2023-04-29T03:27:10;97709.00;;;11.30
7389;BMP180;3735;50.136;11.062;2023-04-29T03:29:35;97711.00;;;11.30
7389;BMP180;3735;50.136;11.062;2023-04-29T03:32:02;97716.00;;;11.30
7389;BMP180;3735;50.136;11.062;2023-04-29T03:34:28;97712.00;;;11.30
7389;BMP180;3735;50.136;11.062;2023-04-29T03:36:54;97701.00;;;11.30
7389;BMP180;3735;50.136;11.062;2023-04-29T03:39:20;97698.00;;;11.30
7389;BMP180;3735;50.136;11.062;2023-04-29T03:41:46;97706.00;;;11.20
7389;BMP180;3735;50.136;11.062;2023-04-29T03:44:12;97702.00;;;11.20
7389;BMP180;3735;50.136;11.062;2023-04-29T03:46:38;97700.00;;;11.20
7389;BMP180;3735;50.136;11.062;2023-04-29T03:49:04;97702.00;;;11.30
7389;BMP180;3735;50.136;11.062;2023-04-29T03:51:30;97712.00;;;11.30
7389;BMP180;3735;50.136;11.062;2023-04-29T03:53:56;97710.00;;;11.20
7389;BMP180;3735;50.136;11.062;2023-04-29T03:56:22;97714.00;;;11.30
7389;BMP180;3735;50.136;11.062;2023-04-29T03:58:51;97723.00;;;11.20
7389;BMP180;3735;50.136;11.062;2023-04-29T04:01:16;97721.00;;;11.20
7389;BMP180;3735;50.136;11.062;2023-04-29T04:03:42;97724.00;;;11.20
7389;BMP180;3735;50.136;11.062;2023-04-29T04:06:08;97732.00;;;11.20
7389;BMP180;3735;50.136;11.062;2023-04-29T04:08:34;97726.00;;;11.30
7389;BMP180;3735;50.136;11.062;2023-04-29T04:11:00;97724.00;;;11.20
7389;BMP180;3735;50.136;11.062;2023-04-29T04:13:31;97725.00;;;11.20
7389;BMP180;3735;50.136;11.062;2023-04-29T04:15:57;97724.00;;;11.20
7389;BMP180;3735;50.136;11.062;2023-04-29T04:18:23;97727.00;;;11.20
7389;BMP180;3735;50.136;11.062;2023-04-29T04:20:49;97715.00;;;11.20
7389;BMP180;3735;50.136;11.062;2023-04-29T04:23:15;97735.00;;;11.20
7389;BMP180;3735;50.136;11.062;2023-04-29T04:25:47;97732.00;;;11.10
7389;BMP180;3735;50.136;11.062;2023-04-29T04:28:14;97736.00;;;11.10
7389;BMP180;3735;50.136;11.062;2023-04-29T04:30:40;97732.00;;;11.20
7389;BMP180;3735;50.136;11.062;2023-04-29T04:33:07;97720.00;;;11.20
7389;BMP180;3735;50.136;11.062;2023-04-29T04:35:33;97731.00;;;11.20
7389;BMP180;3735;50.136;11.062;2023-04-29T04:37:58;97732.00;;;11.20
7389;BMP180;3735;50.136;11.062;2023-04-29T04:40:24;97732.00;;;11.30
7389;BMP180;3735;50.136;11.062;2023-04-29T04:42:50;97727.00;;;11.30
7389;BMP180;3735;50.136;11.062;2023-04-29T04:45:16;97737.00;;;11.30
7389;BMP180;3735;50.136;11.062;2023-04-29T04:47:42;97733.00;;;11.30
7389;BMP180;3735;50.136;11.062;2023-04-29T04:50:08;97741.00;;;11.30
7389;BMP180;3735;50.136;11.062;2023-04-29T04:52:34;97739.00;;;11.40
7389;BMP180;3735;50.136;11.062;2023-04-29T04:55:00;97737.00;;;11.50
7389;BMP180;3735;50.136;11.062;2023-04-29T04:57:26;97747.00;;;11.40
7389;BMP180;3735;50.136;11.062;2023-04-29T04:59:51;97743.00;;;11.40
7389;BMP180;3735;50.136;11.062;2023-04-29T05:02:17;97739.00;;;11.50
7389;BMP180;3735;50.136;11.062;2023-04-29T05:04:43;97732.00;;;11.50
7389;BMP180;3735;50.136;11.062;2023-04-29T05:07:09;97752.00;;;11.60
7389;BMP180;3735;50.136;11.062;2023-04-29T05:09:35;97754.00;;;11.60
7389;BMP180;3735;50.136;11.062;2023-04-29T05:12:02;97754.00;;;11.60
7389;BMP180;3735;50.136;11.062;2023-04-29T05:14:28;97753.00;;;11.60
7389;BMP180;3735;50.136;11.062;2023-04-29T05:17:00;97752.00;;;11.70
7389;BMP180;3735;50.136;11.062;2023-04-29T05:19:26;97751.00;;;11.70
7389;BMP180;3735;50.136;11.062;2023-04-29T05:21:52;97749.00;;;11.80
7389;BMP180;3735;50.136;11.062;2023-04-29T05:24:18;97750.00;;;11.80
7389;BMP180;3735;50.136;11.062;2023-04-29T05:26:43;97761.00;;;11.80
7389;BMP180;3735;50.136;11.062;2023-04-29T05:29:10;97758.00;;;11.80
7389;BMP180;3735;50.136;11.062;2023-04-29T05:31:36;97750.00;;;11.80
7389;BMP180;3735;50.136;11.062;2023-04-29T05:34:06;97766.00;;;11.90
7389;BMP180;3735;50.136;11.062;2023-04-29T05:36:31;97774.00;;;11.90
7389;BMP180;3735;50.136;11.062;2023-04-29T05:38:57;97772.00;;;11.90
7389;BMP180;3735;50.136;11.062;2023-04-29T05:41:23;97776.00;;;12.00
7389;BMP180;3735;50.136;11.062;2023-04-29T05:43:50;97781.00;;;12.00
7389;BMP180;3735;50.136;11.062;2023-04-29T05:46:16;97777.00;;;12.00
7389;BMP180;3735;50.136;11.062;2023-04-29T05:48:42;97777.00;;;12.10
7389;BMP180;3735;50.136;11.062;2023-04-29T05:51:07;97775.00;;;12.20
7389;BMP180;3735;50.136;11.062;2023-04-29T05:53:33;97779.00;;;12.20
7389;BMP180;3735;50.136;11.062;2023-04-29T05:56:00;97784.00;;;12.30
7389;BMP180;3735;50.136;11.062;2023-04-29T05:58:30;97781.00;;;12.40
7389;BMP180;3735;50.136;11.062;2023-04-29T06:00:56;97780.00;;;12.50
7389;BMP180;3735;50.136;11.062;2023-04-29T06:03:22;97788.00;;;12.70
7389;BMP180;3735;50.136;11.062;2023-04-29T06:05:48;97791.00;;;12.80
7389;BMP180;3735;50.136;11.062;2023-04-29T06:08:14;97794.00;;;12.90
7389;BMP180;3735;50.136;11.062;2023-04-29T06:10:40;97793.00;;;12.90
7389;BMP180;3735;50.136;11.062;2023-04-29T06:13:06;97800.00;;;13.00
7389;BMP180;3735;50.136;11.062;2023-04-29T06:15:32;97796.00;;;13.10
7389;BMP180;3735;50.136;11.062;2023-04-29T06:17:57;97795.00;;;13.20
7389;BMP180;3735;50.136;11.062;2023-04-29T06:20:23;97802.00;;;13.10
7389;BMP180;3735;50.136;11.062;2023-04-29T06:22:49;97807.00;;;13.30
7389;BMP180;3735;50.136;11.062;2023-04-29T06:25:15;97812.00;;;13.30
7389;BMP180;3735;50.136;11.062;2023-04-29T06:27:41;97817.00;;;13.30
7389;BMP180;3735;50.136;11.062;2023-04-29T06:30:07;97812.00;;;13.60
7389;BMP180;3735;50.136;11.062;2023-04-29T06:32:33;97814.00;;;14.00
7389;BMP180;3735;50.136;11.062;2023-04-29T06:34:59;97811.00;;;14.00
7389;BMP180;3735;50.136;11.062;2023-04-29T06:37:26;97827.00;;;13.90
7389;BMP180;3735;50.136;11.062;2023-04-29T06:39:53;97816.00;;;14.00
7389;BMP180;3735;50.136;11.062;2023-04-29T06:42:18;97828.00;;;14.30
7389;BMP180;3735;50.136;11.062;2023-04-29T06:44:44;97826.00;;;14.10
7389;BMP180;3735;50.136;11.062;2023-04-29T06:47:10;97835.00;;;14.20
7389;BMP180;3735;50.136;11.062;2023-04-29T06:49:36;97830.00;;;14.30
7389;BMP180;3735;50.136;11.062;2023-04-29T06:52:02;97831.00;;;14.80
7389;BMP180;3735;50.136;11.062;2023-04-29T06:54:27;97826.00;;;15.10
7389;BMP180;3735;50.136;11.062;2023-04-29T06:56:53;97829.00;;;15.70
7389;BMP180;3735;50.136;11.062;2023-04-29T06:59:19;97834.00;;;15.80
7389;BMP180;3735;50.136;11.062;2023-04-29T07:01:45;97829.00;;;15.60
7389;BMP180;3735;50.136;11.062;2023-04-29T07:04:10;97829.00;;;16.20
7389;BMP180;3735;50.136;11.062;2023-04-29T07:06:37;97839.00;;;16.30
7389;BMP180;3735;50.136;11.062;2023-04-29T07:09:03;97837.00;;;15.90
7389;BMP180;3735;50.136;11.062;2023-04-29T07:11:28;97840.00;;;16.00
7389;BMP180;3735;50.136;11.062;2023-04-29T07:13:54;97837.00;;;15.60
7389;BMP180;3735;50.136;11.062;2023-04-29T07:16:20;97838.00;;;15.90
7389;BMP180;3735;50.136;11.062;2023-04-29T07:18:47;97839.00;;;15.60
7389;BMP180;3735;50.136;11.062;2023-04-29T07:21:13;97847.00;;;16.30
7389;BMP180;3735;50.136;11.062;2023-04-29T07:23:39;97835.00;;;17.20
7389;BMP180;3735;50.136;11.062;2023-04-29T07:26:13;97854.00;;;16.90
7389;BMP180;3735;50.136;11.062;2023-04-29T07:28:41;97855.00;;;16.80
7389;BMP180;3735;50.136;11.062;2023-04-29T07:31:07;97869.00;;;16.70
7389;BMP180;3735;50.136;11.062;2023-04-29T07:33:34;97865.00;;;16.20
7389;BMP180;3735;50.136;11.062;2023-04-29T07:36:01;97865.00;;;16.00
7389;BMP180;3735;50.136;11.062;2023-04-29T07:38:27;97871.00;;;15.70
7389;BMP180;3735;50.136;11.062;2023-04-29T07:40:54;97879.00;;;15.40
7389;BMP180;3735;50.136;11.062;2023-04-29T07:43:20;97878.00;;;15.40
7389;BMP180;3735;50.136;11.062;2023-04-29T07:45:47;97868.00;;;15.50
7389;BMP180;3735;50.136;11.062;2023-04-29T07:48:12;97871.00;;;15.60
7389;BMP180;3735;50.136;11.062;2023-04-29T07:50:38;97869.00;;;15.60
7389;BMP180;3735;50.136;11.062;2023-04-29T07:53:05;97879.00;;;15.60
7389;BMP180;3735;50.136;11.062;2023-04-29T07:55:31;97890.00;;;16.10
7389;BMP180;3735;50.136;11.062;2023-04-29T07:57:57;97889.00;;;16.20
7389;BMP180;3735;50.136;11.062;2023-04-29T08:00:24;97888.00;;;15.90
7389;BMP180;3735;50.136;11.062;2023-04-29T08:02:51;97895.00;;;15.80
7389;BMP180;3735;50.136;11.062;2023-04-29T08:05:17;97897.00;;;15.80
7389;BMP180;3735;50.136;11.062;2023-04-29T08:07:43;97894.00;;;15.80
7389;BMP180;3735;50.136;11.062;2023-04-29T08:10:09;97896.00;;;16.10
7389;BMP180;3735;50.136;11.062;2023-04-29T08:12:35;97893.00;;;16.20
7389;BMP180;3735;50.136;11.062;2023-04-29T08:15:01;97883.00;;;17.00
7389;BMP180;3735;50.136;11.062;2023-04-29T08:17:27;97892.00;;;17.40
7389;BMP180;3735;50.136;11.062;2023-04-29T08:19:53;97899.00;;;17.40
7389;BMP180;3735;50.136;11.062;2023-04-29T08:22:19;97895.00;;;17.20
7389;BMP180;3735;50.136;11.062;2023-04-29T08:24:45;97908.00;;;17.00
7389;BMP180;3735;50.136;11.062;2023-04-29T08:27:11;97900.00;;;16.70
7389;BMP180;3735;50.136;11.062;2023-04-29T08:29:36;97917.00;;;16.00
7389;BMP180;3735;50.136;11.062;2023-04-29T08:32:02;97920.00;;;15.80
7389;BMP180;3735;50.136;11.062;2023-04-29T08:34:29;97928.00;;;15.40
7389;BMP180;3735;50.136;11.062;2023-04-29T08:36:56;97925.00;;;15.10
7389;BMP180;3735;50.136;11.062;2023-04-29T08:39:22;97942.00;;;14.80
7389;BMP180;3735;50.136;11.062;2023-04-29T08:41:48;97946.00;;;14.60
7389;BMP180;3735;50.136;11.062;2023-04-29T08:44:19;97967.00;;;14.00
7389;BMP180;3735;50.136;11.062;2023-04-29T08:46:47;97969.00;;;13.60
7389;BMP180;3735;50.136;11.062;2023-04-29T08:49:12;97971.00;;;13.30
7389;BMP180;3735;50.136;11.062;2023-04-29T08:51:38;97976.00;;;13.00
7389;BMP180;3735;50.136;11.062;2023-04-29T08:54:04;97982.00;;;12.70
7389;BMP180;3735;50.136;11.062;2023-04-29T08:56:32;97975.00;;;12.60
7389;BMP180;3735;50.136;11.062;2023-04-29T08:59:00;97993.00;;;12.40
7389;BMP180;3735;50.136;11.062;2023-04-29T09:01:28;97990.00;;;12.40
7389;BMP180;3735;50.136;11.062;2023-04-29T09:04:14;97985.00;;;12.40
7389;BMP180;3735;50.136;11.062;2023-04-29T09:06:45;98000.00;;;12.40
7389;BMP180;3735;50.136;11.062;2023-04-29T09:09:12;97990.00;;;12.70
7389;BMP180;3735;50.136;11.062;2023-04-29T09:11:39;98003.00;;;12.80
7389;BMP180;3735;50.136;11.062;2023-04-29T09:14:05;98003.00;;;12.70
7389;BMP180;3735;50.136;11.062;2023-04-29T09:16:31;97994.00;;;12.80
7389;BMP180;3735;50.136;11.062;2023-04-29T09:18:56;98008.00;;;12.70
7389;BMP180;3735;50.136;11.062;2023-04-29T09:21:28;98000.00;;;12.70
7389;BMP180;3735;50.136;11.062;2023-04-29T09:23:57;98002.00;;;12.70
7389;BMP180;3735;50.136;11.062;2023-04-29T09:26:24;98001.00;;;12.90
7389;BMP180;3735;50.136;11.062;2023-04-29T09:29:11;98007.00;;;13.00
7389;BMP180;3735;50.136;11.062;2023-04-29T09:31:41;98011.00;;;13.10
7389;BMP180;3735;50.136;11.062;2023-04-29T09:34:07;98005.00;;;13.40
7389;BMP180;3735;50.136;11.062;2023-04-29T09:39:08;98015.00;;;13.70
7389;BMP180;3735;50.136;11.062;2023-04-29T09:42:00;98003.00;;;13.90
7389;BMP180;3735;50.136;11.062;2023-04-29T09:44:31;98024.00;;;14.10
7389;BMP180;3735;50.136;11.062;2023-04-29T09:49:38;98023.00;;;14.70
7389;BMP180;3735;50.136;11.062;2023-04-29T09:52:12;98015.00;;;14.90
7389;BMP180;3735;50.136;11.062;2023-04-29T09:54:41;98012.00;;;15.20
7389;BMP180;3735;50.136;11.062;2023-04-29T09:57:10;98017.00;;;15.50
7389;BMP180;3735;50.136;11.062;2023-04-29T09:59:39;98022.00;;;15.60
7389;BMP180;3735;50.136;11.062;2023-04-29T10:02:16;98018.00;;;15.60
7389;BMP180;3735;50.136;11.062;2023-04-29T10:04:52;98024.00;;;15.50
7389;BMP180;3735;50.136;11.062;2023-04-29T10:07:19;98024.00;;;15.50
7389;BMP180;3735;50.136;11.062;2023-04-29T10:09:47;98030.00;;;15.40
7389;BMP180;3735;50.136;11.062;2023-04-29T10:12:19;98032.00;;;15.40
7389;BMP180;3735;50.136;11.062;2023-04-29T10:14:56;98028.00;;;15.30
7389;BMP180;3735;50.136;11.062;2023-04-29T10:17:45;98018.00;;;15.50
7389;BMP180;3735;50.136;11.062;2023-04-29T10:20:14;98037.00;;;15.60
7389;BMP180;3735;50.136;11.062;2023-04-29T10:22:49;98031.00;;;15.60
7389;BMP180;3735;50.136;11.062;2023-04-29T10:25:18;98032.00;;;15.20
7389;BMP180;3735;50.136;11.062;2023-04-29T10:27:46;98033.00;;;15.20
7389;BMP180;3735;50.136;11.062;2023-04-29T10:30:16;98042.00;;;15.40
7389;BMP180;3735;50.136;11.062;2023-04-29T10:32:44;98039.00;;;15.70
7389;BMP180;3735;50.136;11.062;2023-04-29T10:35:12;98043.00;;;15.90
7389;BMP180;3735;50.136;11.062;2023-04-29T10:37:40;98046.00;;;16.20
7389;BMP180;3735;50.136;11.062;2023-04-29T10:40:30;98046.00;;;16.10
7389;BMP180;3735;50.136;11.062;2023-04-29T10:43:00;98040.00;;;16.10
7389;BMP180;3735;50.136;11.062;2023-04-29T10:45:27;98041.00;;;15.90
7389;BMP180;3735;50.136;11.062;2023-04-29T10:53:19;98049.00;;;15.90
7389;BMP180;3735;50.136;11.062;2023-04-29T10:55:56;98045.00;;;16.10
7389;BMP180;3735;50.136;11.062;2023-04-29T11:01:05;98032.00;;;16.10
7389;BMP180;3735;50.136;11.062;2023-04-29T11:04:01;98046.00;;;16.20
7389;BMP180;3735;50.136;11.062;2023-04-29T11:09:12;98046.00;;;16.70
7389;BMP180;3735;50.136;11.062;2023-04-29T11:14:22;98042.00;;;17.10
7389;BMP180;3735;50.136;11.062;2023-04-29T11:17:01;98051.00;;;17.40
7389;BMP180;3735;50.136;11.062;2023-04-29T11:19:33;98044.00;;;17.40
7389;BMP180;3735;50.136;11.062;2023-04-29T11:27:31;98050.00;;;17.50
7389;BMP180;3735;50.136;11.062;2023-04-29T11:29:59;98048.00;;;17.70
7389;BMP180;3735;50.136;11.062;2023-04-29T11:32:31;98050.00;;;18.00
7389;BMP180;3735;50.136;11.062;2023-04-29T11:35:15;98056.00;;;18.20
7389;BMP180;3735;50.136;11.062;2023-04-29T11:37:43;98058.00;;;18.10
7389;BMP180;3735;50.136;11.062;2023-04-29T11:40:11;98062.00;;;18.00
7389;BMP180;3735;50.136;11.062;2023-04-29T11:42:48;98053.00;;;18.20
7389;BMP180;3735;50.136;11.062;2023-04-29T11:45:16;98051.00;;;18.60
7389;BMP180;3735;50.136;11.062;2023-04-29T11:47:45;98059.00;;;18.80
7389;BMP180;3735;50.136;11.062;2023-04-29T11:50:12;98063.00;;;18.80
7389;BMP180;3735;50.136;11.062;2023-04-29T11:52:38;98069.00;;;19.00
7389;BMP180;3735;50.136;11.062;2023-04-29T11:55:08;98066.00;;;19.70
7389;BMP180;3735;50.136;11.062;2023-04-29T11:57:35;98069.00;;;19.40
7389;BMP180;3735;50.136;11.062;2023-04-29T12:00:01;98059.00;;;20.10
7389;BMP180;3735;50.136;11.062;2023-04-29T12:02:31;98065.00;;;20.30
7389;BMP180;3735;50.136;11.062;2023-04-29T12:04:59;98070.00;;;20.00
7389;BMP180;3735;50.136;11.062;2023-04-29T12:07:27;98068.00;;;20.30
7389;BMP180;3735;50.136;11.062;2023-04-29T12:09:54;98076.00;;;20.50
7389;BMP180;3735;50.136;11.062;2023-04-29T12:12:22;98070.00;;;20.40
7389;BMP180;3735;50.136;11.062;2023-04-29T12:14:48;98068.00;;;20.10
7389;BMP180;3735;50.136;11.062;2023-04-29T12:17:15;98071.00;;;19.70
7389;BMP180;3735;50.136;11.062;2023-04-29T12:19:42;98075.00;;;19.70
7389;BMP180;3735;50.136;11.062;2023-04-29T12:22:09;98075.00;;;19.60
7389;BMP180;3735;50.136;11.062;2023-04-29T12:24:36;98077.00;;;19.60
7389;BMP180;3735;50.136;11.062;2023-04-29T12:27:06;98082.00;;;19.90
7389;BMP180;3735;50.136;11.062;2023-04-29T12:29:32;98082.00;;;20.00
7389;BMP180;3735;50.136;11.062;2023-04-29T12:31:58;98075.00;;;20.20
7389;BMP180;3735;50.136;11.062;2023-04-29T12:34:27;98083.00;;;19.90
7389;BMP180;3735;50.136;11.062;2023-04-29T12:36:55;98082.00;;;19.70
7389;BMP180;3735;50.136;11.062;2023-04-29T12:39:22;98081.00;;;19.20
7389;BMP180;3735;50.136;11.062;2023-04-29T12:41:48;98089.00;;;18.50
7389;BMP180;3735;50.136;11.062;2023-04-29T12:44:14;98096.00;;;18.20
7389;BMP180;3735;50.136;11.062;2023-04-29T12:46:41;98093.00;;;17.70
7389;BMP180;3735;50.136;11.062;2023-04-29T12:49:07;98108.00;;;17.10
7389;BMP180;3735;50.136;11.062;2023-04-29T12:51:34;98099.00;;;16.80
7389;BMP180;3735;50.136;11.062;2023-04-29T12:54:04;98107.00;;;16.40
7389;BMP180;3735;50.136;11.062;2023-04-29T12:56:32;98116.00;;;16.10
7389;BMP180;3735;50.136;11.062;2023-04-29T12:59:08;98127.00;;;15.80
7389;BMP180;3735;50.136;11.062;2023-04-29T13:01:36;98112.00;;;15.60
7389;BMP180;3735;50.136;11.062;2023-04-29T13:04:02;98117.00;;;15.40
7389;BMP180;3735;50.136;11.062;2023-04-29T13:06:30;98114.00;;;15.20
7389;BMP180;3735;50.136;11.062;2023-04-29T13:08:56;98119.00;;;15.20
7389;BMP180;3735;50.136;11.062;2023-04-29T13:11:22;98120.00;;;15.20
7389;BMP180;3735;50.136;11.062;2023-04-29T13:13:48;98116.00;;;15.40
7389;BMP180;3735;50.136;11.062;2023-04-29T13:16:14;98115.00;;;15.50
7389;BMP180;3735;50.136;11.062;2023-04-29T13:18:40;98127.00;;;15.80
7389;BMP180;3735;50.136;11.062;2023-04-29T13:21:06;98116.00;;;16.10
7389;BMP180;3735;50.136;11.062;2023-04-29T13:23:32;98110.00;;;16.30
7389;BMP180;3735;50.136;11.062;2023-04-29T13:25:57;98114.00;;;16.60
7389;BMP180;3735;50.136;11.062;2023-04-29T13:28:23;98115.00;;;16.80
7389;BMP180;3735;50.136;11.062;2023-04-29T13:30:49;98112.00;;;17.40
7389;BMP180;3735;50.136;11.062;2023-04-29T13:33:15;98108.00;;;17.50
7389;BMP180;3735;50.136;11.062;2023-04-29T13:35:41;98107.00;;;17.60
7389;BMP180;3735;50.136;11.062;2023-04-29T13:38:07;98115.00;;;17.70
7389;BMP180;3735;50.136;11.062;2023-04-29T13:40:33;98105.00;;;17.60
7389;BMP180;3735;50.136;11.062;2023-04-29T13:42:59;98102.00;;;17.60
7389;BMP180;3735;50.136;11.062;2023-04-29T13:45:25;98112.00;;;17.40
7389;BMP180;3735;50.136;11.062;2023-04-29T13:47:50;98113.00;;;17.30
7389;BMP180;3735;50.136;11.062;2023-04-29T13:50:16;98119.00;;;16.90
7389;BMP180;3735;50.136;11.062;2023-04-29T13:52:42;98110.00;;;16.90
7389;BMP180;3735;50.136;11.062;2023-04-29T13:55:08;98116.00;;;16.60
7389;BMP180;3735;50.136;11.062;2023-04-29T13:57:34;98121.00;;;16.40
7389;BMP180;3735;50.136;11.062;2023-04-29T14:00:00;98121.00;;;16.20
7389;BMP180;3735;50.136;11.062;2023-04-29T14:02:25;98123.00;;;16.30
7389;BMP180;3735;50.136;11.062;2023-04-29T14:04:51;98126.00;;;16.30
7389;BMP180;3735;50.136;11.062;2023-04-29T14:07:17;98125.00;;;16.40
7389;BMP180;3735;50.136;11.062;2023-04-29T14:09:43;98125.00;;;16.50
7389;BMP180;3735;50.136;11.062;2023-04-29T14:12:09;98122.00;;;16.60
7389;BMP180;3735;50.136;11.062;2023-04-29T14:14:35;98126.00;;;16.70
7389;BMP180;3735;50.136;11.062;2023-04-29T14:17:01;98119.00;;;16.80
7389;BMP180;3735;50.136;11.062;2023-04-29T14:19:26;98123.00;;;17.00
7389;BMP180;3735;50.136;11.062;2023-04-29T14:21:52;98116.00;;;17.10
7389;BMP180;3735;50.136;11.062;2023-04-29T14:24:18;98137.00;;;17.10
7389;BMP180;3735;50.136;11.062;2023-04-29T14:26:43;98132.00;;;17.20
7389;BMP180;3735;50.136;11.062;2023-04-29T14:29:09;98142.00;;;17.20
7389;BMP180;3735;50.136;11.062;2023-04-29T14:31:35;98139.00;;;17.00
7389;BMP180;3735;50.136;11.062;2023-04-29T14:34:03;98140.00;;;16.80
7389;BMP180;3735;50.136;11.062;2023-04-29T14:36:30;98156.00;;;16.50
7389;BMP180;3735;50.136;11.062;2023-04-29T14:38:58;98156.00;;;16.30
7389;BMP180;3735;50.136;11.062;2023-04-29T14:41:25;98172.00;;;16.10
7389;BMP180;3735;50.136;11.062;2023-04-29T14:43:51;98167.00;;;16.00
7389;BMP180;3735;50.136;11.062;2023-04-29T14:46:16;98171.00;;;15.90
7389;BMP180;3735;50.136;11.062;2023-04-29T14:48:42;98177.00;;;15.90
7389;BMP180;3735;50.136;11.062;2023-04-29T14:51:08;98178.00;;;15.80
7389;BMP180;3735;50.136;11.062;2023-04-29T14:53:34;98182.00;;;15.70
7389;BMP180;3735;50.136;11.062;2023-04-29T14:56:20;98183.00;;;15.60
7389;BMP180;3735;50.136;11.062;2023-04-29T14:58:46;98178.00;;;15.60